createdAt,value
2022-11-06T00:01:22.200Z,12.80
2022-11-06T00:04:07.806Z,12.80
2022-11-06T00:06:53.134Z,12.70
2022-11-06T00:09:38.705Z,12.70
2022-11-06T00:12:24.347Z,12.70
2022-11-06T00:15:10.890Z,12.70
2022-11-06T00:17:56.878Z,12.70
2022-11-06T00:20:42.350Z,12.60
2022-11-06T00:23:27.794Z,12.60
2022-11-06T00:26:16.985Z,12.50
2022-11-06T00:29:03.358Z,12.50
2022-11-06T00:31:50.643Z,12.50
2022-11-06T00:34:36.223Z,12.50
2022-11-06T00:37:21.704Z,12.60
2022-11-06T00:40:07.761Z,12.60
2022-11-06T00:42:55.100Z,12.70
2022-11-06T00:45:40.563Z,12.70
2022-11-06T00:48:27.659Z,12.70
2022-11-06T00:51:25.594Z,12.70
2022-11-06T00:54:12.188Z,12.70
2022-11-06T00:56:57.730Z,12.70
2022-11-06T00:59:43.233Z,12.70
2022-11-06T01:02:29.033Z,12.60
2022-11-06T01:05:14.872Z,12.70
2022-11-06T01:08:00.577Z,12.70
2022-11-06T01:10:45.991Z,12.60
2022-11-06T01:13:31.434Z,12.70
2022-11-06T01:16:17.422Z,12.60
2022-11-06T01:19:03.082Z,12.60
2022-11-06T01:21:50.456Z,12.60
2022-11-06T01:24:36.256Z,12.60
2022-11-06T01:27:26.768Z,12.50
2022-11-06T01:30:13.520Z,12.60
2022-11-06T01:33:00.113Z,12.50
2022-11-06T01:35:47.485Z,12.50
2022-11-06T01:38:33.138Z,12.60
2022-11-06T01:41:21.830Z,12.50
2022-11-06T01:44:33.412Z,12.60
2022-11-06T01:47:24.098Z,12.60
2022-11-06T01:50:10.984Z,12.60
2022-11-06T01:53:00.886Z,12.50
2022-11-06T01:55:50.945Z,12.50
2022-11-06T01:58:40.669Z,12.50
2022-11-06T02:01:31.416Z,12.50
2022-11-06T02:04:23.572Z,12.40
2022-11-06T02:07:09.939Z,12.40
2022-11-06T02:09:55.674Z,12.40
2022-11-06T02:12:58.828Z,12.40
2022-11-06T02:15:55.069Z,12.40
2022-11-06T02:19:02.119Z,12.40
2022-11-06T02:22:11.780Z,12.40
2022-11-06T02:25:12.618Z,12.40
2022-11-06T02:28:14.441Z,12.40
2022-11-06T02:31:03.218Z,12.30
2022-11-06T02:33:54.834Z,12.40
2022-11-06T02:36:53.092Z,12.40
2022-11-06T02:39:42.448Z,12.40
2022-11-06T02:42:29.635Z,12.30
2022-11-06T02:45:18.617Z,12.40
2022-11-06T02:48:06.826Z,12.40
2022-11-06T02:50:54.762Z,12.40
2022-11-06T02:53:43.558Z,12.40
2022-11-06T02:56:34.924Z,12.40
2022-11-06T02:59:29.976Z,12.40
2022-11-06T03:02:22.140Z,12.40
2022-11-06T03:05:19.016Z,12.40
2022-11-06T03:08:14.808Z,12.40
2022-11-06T03:11:22.968Z,12.40
2022-11-06T03:14:16.948Z,12.50
2022-11-06T03:17:13.232Z,12.40
2022-11-06T03:20:36.862Z,12.40
2022-11-06T03:23:41.567Z,12.40
2022-11-06T03:26:27.222Z,12.40
2022-11-06T03:29:16.966Z,12.30
2022-11-06T03:32:14.547Z,12.30
2022-11-06T03:35:09.404Z,12.30
2022-11-06T03:38:27.772Z,13.70
2022-11-06T03:41:20.550Z,12.30
2022-11-06T03:44:11.365Z,12.40
2022-11-06T03:47:15.497Z,12.40
2022-11-06T03:50:07.568Z,12.30
2022-11-06T03:52:58.718Z,12.30
2022-11-06T03:55:52.322Z,12.30
2022-11-06T03:58:39.592Z,12.40
2022-11-06T04:01:29.398Z,12.40
2022-11-06T04:04:21.769Z,12.30
2022-11-06T04:07:16.787Z,12.20
2022-11-06T04:10:24.766Z,12.30
2022-11-06T04:13:28.647Z,12.20
2022-11-06T04:16:14.729Z,12.20
2022-11-06T04:19:00.920Z,12.20
2022-11-06T04:21:52.295Z,12.20
2022-11-06T04:25:06.521Z,12.20
2022-11-06T04:28:21.020Z,12.20
2022-11-06T04:31:23.748Z,12.10
2022-11-06T04:34:22.141Z,12.20
2022-11-06T04:37:12.848Z,12.10
2022-11-06T04:40:33.435Z,12.10
2022-11-06T04:43:36.797Z,12.10
2022-11-06T04:46:27.521Z,12.10
2022-11-06T04:49:14.229Z,12.10
2022-11-06T04:52:03.694Z,12.10
2022-11-06T04:54:50.256Z,12.20
2022-11-06T04:57:35.814Z,12.10
2022-11-06T05:00:21.456Z,12.10
2022-11-06T05:03:07.214Z,12.10
2022-11-06T05:05:52.687Z,12.10
2022-11-06T05:08:38.150Z,12.10
2022-11-06T05:11:23.695Z,12.10
2022-11-06T05:14:09.259Z,12.10
2022-11-06T05:16:55.037Z,12.10
2022-11-06T05:19:40.628Z,12.20
2022-11-06T05:22:44.534Z,12.10
2022-11-06T05:25:33.466Z,12.00
2022-11-06T05:28:19.077Z,12.00
2022-11-06T05:31:04.676Z,12.10
2022-11-06T05:33:50.467Z,12.00
2022-11-06T05:36:36.166Z,12.10
2022-11-06T05:39:21.586Z,12.10
2022-11-06T05:42:07.181Z,12.10
2022-11-06T05:44:52.685Z,12.20
2022-11-06T05:47:41.628Z,12.10
2022-11-06T05:50:27.263Z,12.10
2022-11-06T05:53:12.795Z,12.10
2022-11-06T05:55:59.054Z,12.10
2022-11-06T05:58:44.511Z,12.10
2022-11-06T06:01:30.505Z,12.10
2022-11-06T06:04:16.045Z,12.00
2022-11-06T06:07:01.798Z,12.10
2022-11-06T06:09:47.730Z,12.10
2022-11-06T06:12:33.400Z,12.20
2022-11-06T06:15:19.101Z,12.20
2022-11-06T06:18:05.152Z,12.20
2022-11-06T06:20:50.542Z,12.10
2022-11-06T06:23:36.127Z,12.10
2022-11-06T06:26:21.775Z,12.10
2022-11-06T06:29:07.210Z,12.00
2022-11-06T06:31:52.844Z,12.00
2022-11-06T06:34:38.420Z,11.90
2022-11-06T06:37:23.959Z,12.00
2022-11-06T06:40:10.857Z,11.90
2022-11-06T06:42:57.748Z,11.90
2022-11-06T06:45:43.416Z,11.90
2022-11-06T06:48:29.360Z,11.90
2022-11-06T06:51:18.444Z,12.00
2022-11-06T06:54:07.024Z,12.00
2022-11-06T06:56:52.663Z,12.00
2022-11-06T06:59:38.093Z,12.00
2022-11-06T07:02:23.715Z,11.90
2022-11-06T07:05:09.229Z,11.90
2022-11-06T07:07:54.969Z,11.90
2022-11-06T07:10:40.602Z,11.80
2022-11-06T07:13:28.386Z,11.90
2022-11-06T07:16:16.921Z,11.90
2022-11-06T07:19:03.068Z,11.80
2022-11-06T07:21:52.339Z,11.90
2022-11-06T07:24:37.951Z,11.80
2022-11-06T07:27:23.455Z,11.90
2022-11-06T07:30:09.498Z,11.80
2022-11-06T07:32:55.015Z,11.80
2022-11-06T07:35:40.685Z,11.80
2022-11-06T07:38:26.042Z,11.80
2022-11-06T07:41:14.419Z,11.80
2022-11-06T07:44:00.100Z,11.90
2022-11-06T07:46:45.499Z,11.90
2022-11-06T07:49:31.007Z,11.90
2022-11-06T07:52:16.394Z,11.80
2022-11-06T07:55:01.884Z,11.90
2022-11-06T07:57:47.820Z,11.90
2022-11-06T08:00:33.511Z,12.00
2022-11-06T08:03:19.486Z,12.00
2022-11-06T08:06:05.390Z,12.00
2022-11-06T08:08:54.859Z,12.00
2022-11-06T08:11:43.229Z,12.00
2022-11-06T08:14:29.068Z,12.00
2022-11-06T08:17:14.637Z,13.30
2022-11-06T08:20:00.218Z,12.00
2022-11-06T08:22:45.824Z,12.00
2022-11-06T08:25:32.125Z,12.10
2022-11-06T08:28:17.581Z,12.10
2022-11-06T08:31:07.093Z,12.20
2022-11-06T08:33:53.539Z,12.20
2022-11-06T08:36:49.440Z,12.30
2022-11-06T08:39:35.330Z,12.30
2022-11-06T08:42:20.840Z,12.40
2022-11-06T08:45:06.780Z,12.40
2022-11-06T08:47:52.250Z,12.40
2022-11-06T08:50:40.095Z,12.60
2022-11-06T08:53:26.101Z,12.70
2022-11-06T08:56:11.738Z,12.80
2022-11-06T08:58:57.350Z,12.90
2022-11-06T09:01:42.929Z,13.00
2022-11-06T09:04:28.624Z,13.20
2022-11-06T09:07:14.256Z,13.30
2022-11-06T09:09:59.863Z,14.20
2022-11-06T09:12:45.400Z,13.50
2022-11-06T09:15:31.410Z,13.60
2022-11-06T09:18:17.229Z,13.70
2022-11-06T09:21:02.990Z,13.80
2022-11-06T09:23:49.346Z,13.90
2022-11-06T09:26:35.230Z,14.00
2022-11-06T09:29:20.930Z,14.10
2022-11-06T09:32:07.560Z,14.30
2022-11-06T09:34:53.311Z,14.30
2022-11-06T09:37:38.791Z,14.40
2022-11-06T09:40:38.079Z,14.50
2022-11-06T09:46:48.759Z,14.80
2022-11-06T09:49:53.697Z,14.90
2022-11-06T09:52:50.423Z,15.00
2022-11-06T09:55:40.981Z,15.20
2022-11-06T09:58:37.271Z,15.30
2022-11-06T10:01:34.655Z,15.40
2022-11-06T10:04:41.688Z,15.50
2022-11-06T10:07:29.078Z,15.60
2022-11-06T10:10:18.186Z,15.70
2022-11-06T10:13:32.805Z,15.70
2022-11-06T10:16:46.240Z,15.70
2022-11-06T10:19:54.642Z,15.70
2022-11-06T10:22:43.066Z,15.90
2022-11-06T10:25:49.503Z,16.00
2022-11-06T10:28:38.208Z,16.20
2022-11-06T10:31:28.536Z,16.20
2022-11-06T10:34:28.093Z,16.30
2022-11-06T10:37:20.499Z,16.50
2022-11-06T10:40:11.251Z,16.70
2022-11-06T10:43:03.027Z,16.70
2022-11-06T10:45:54.049Z,16.60
2022-11-06T10:48:46.010Z,16.50
2022-11-06T10:51:55.739Z,16.50
2022-11-06T10:54:41.545Z,16.40
2022-11-06T10:57:27.252Z,16.40
2022-11-06T11:00:15.348Z,16.40
2022-11-06T11:03:07.231Z,16.30
2022-11-06T11:05:52.966Z,16.10
2022-11-06T11:08:44.163Z,16.10
2022-11-06T11:11:29.957Z,16.00
2022-11-06T11:14:23.696Z,15.90
2022-11-06T11:17:09.181Z,15.90
2022-11-06T11:19:54.682Z,15.80
2022-11-06T11:22:40.210Z,15.70
2022-11-06T11:25:26.028Z,15.70
2022-11-06T11:28:33.149Z,15.60
2022-11-06T11:31:19.274Z,15.60
2022-11-06T11:34:14.640Z,15.60
2022-11-06T11:37:03.030Z,15.60
2022-11-06T11:39:48.323Z,15.70
2022-11-06T11:42:34.002Z,15.80
2022-11-06T11:45:21.200Z,15.70
2022-11-06T11:48:13.943Z,15.70
2022-11-06T11:51:12.526Z,15.70
2022-11-06T11:54:06.571Z,15.70
2022-11-06T11:57:16.882Z,15.60
2022-11-06T12:00:06.270Z,15.70
2022-11-06T12:03:10.945Z,15.70
2022-11-06T12:06:13.337Z,15.70
2022-11-06T12:08:58.949Z,15.80
2022-11-06T12:11:45.366Z,16.00
2022-11-06T12:14:36.371Z,16.20
2022-11-06T12:17:24.040Z,16.40
2022-11-06T12:20:15.958Z,16.60
2022-11-06T12:23:04.177Z,16.80
2022-11-06T12:26:18.147Z,16.90
2022-11-06T12:29:47.878Z,16.70
2022-11-06T12:32:54.260Z,16.80
2022-11-06T12:35:46.164Z,16.80
2022-11-06T12:38:51.857Z,17.00
2022-11-06T12:41:45.910Z,17.00
2022-11-06T12:44:31.556Z,17.20
2022-11-06T12:47:32.902Z,17.20
2022-11-06T12:50:27.067Z,17.20
2022-11-06T12:53:18.875Z,17.10
2022-11-06T12:56:26.560Z,17.10
2022-11-06T12:59:33.070Z,17.00
2022-11-06T13:02:43.902Z,16.90
2022-11-06T13:05:39.050Z,16.80
2022-11-06T13:08:52.840Z,16.70
2022-11-06T13:12:13.410Z,16.60
2022-11-06T13:15:40.463Z,16.60
2022-11-06T13:18:39.698Z,16.50
2022-11-06T13:21:31.287Z,16.50
2022-11-06T13:24:32.274Z,16.40
2022-11-06T13:27:43.846Z,16.40
2022-11-06T13:30:30.554Z,16.30
2022-11-06T13:33:29.366Z,16.40
2022-11-06T13:36:16.044Z,16.50
2022-11-06T13:39:24.374Z,16.60
2022-11-06T13:42:30.987Z,16.70
2022-11-06T13:45:17.773Z,16.70
2022-11-06T13:48:39.550Z,16.70
2022-11-06T13:51:28.257Z,16.70
2022-11-06T13:54:40.975Z,16.60
2022-11-06T13:57:43.510Z,16.60
2022-11-06T14:00:56.060Z,16.50
2022-11-06T14:03:54.040Z,16.40
2022-11-06T14:06:41.337Z,16.30
2022-11-06T14:09:30.962Z,16.30
2022-11-06T14:12:22.322Z,16.10
2022-11-06T14:15:19.991Z,16.10
2022-11-06T14:18:06.035Z,16.10
2022-11-06T14:21:26.530Z,16.00
2022-11-06T14:24:39.502Z,15.90
2022-11-06T14:27:25.245Z,15.80
2022-11-06T14:30:50.277Z,15.70
2022-11-06T14:33:40.610Z,15.70
2022-11-06T14:36:28.205Z,15.70
2022-11-06T14:39:13.855Z,15.70
2022-11-06T14:42:00.085Z,15.70
2022-11-06T14:44:48.449Z,15.60
2022-11-06T14:47:41.495Z,15.60
2022-11-06T14:50:39.837Z,15.60
2022-11-06T14:53:33.998Z,15.50
2022-11-06T14:56:26.941Z,15.40
2022-11-06T14:59:32.780Z,15.40
2022-11-06T15:02:26.371Z,15.40
2022-11-06T15:05:19.345Z,15.40
2022-11-06T15:08:05.866Z,15.20
2022-11-06T15:10:53.606Z,15.20
2022-11-06T15:13:38.994Z,15.10
2022-11-06T15:16:33.728Z,15.10
2022-11-06T15:19:27.727Z,15.10
2022-11-06T15:22:13.332Z,15.00
2022-11-06T15:25:18.697Z,15.00
2022-11-06T15:28:20.647Z,14.90
2022-11-06T15:31:12.067Z,14.90
2022-11-06T15:34:03.044Z,14.80
2022-11-06T15:36:54.313Z,14.90
2022-11-06T15:39:49.471Z,14.70
2022-11-06T15:42:35.823Z,14.80
2022-11-06T15:45:28.093Z,14.80
2022-11-06T15:48:23.583Z,14.80
2022-11-06T15:51:28.163Z,14.80
2022-11-06T15:54:14.629Z,14.80
2022-11-06T15:57:04.003Z,14.70
2022-11-06T15:59:50.012Z,14.70
2022-11-06T16:02:48.842Z,14.60
2022-11-06T16:05:37.242Z,14.60
2022-11-06T16:08:26.113Z,14.60
2022-11-06T16:11:17.930Z,14.60
2022-11-06T16:14:03.363Z,14.50
2022-11-06T16:16:52.892Z,14.40
2022-11-06T16:19:39.879Z,14.40
2022-11-06T16:22:30.849Z,14.40
2022-11-06T16:25:19.651Z,14.40
2022-11-06T16:28:13.126Z,14.40
2022-11-06T16:31:13.538Z,14.40
2022-11-06T16:34:20.322Z,14.30
2022-11-06T16:37:31.619Z,14.40
2022-11-06T16:40:50.416Z,14.40
2022-11-06T16:43:36.213Z,14.30
2022-11-06T16:46:21.708Z,14.30
2022-11-06T16:49:34.242Z,14.30
2022-11-06T16:52:33.020Z,14.30
2022-11-06T16:55:25.759Z,14.30
2022-11-06T16:58:17.824Z,14.30
2022-11-06T17:01:06.530Z,14.30
2022-11-06T17:04:03.020Z,14.20
2022-11-06T17:06:49.630Z,14.20
2022-11-06T17:09:35.826Z,14.20
2022-11-06T17:12:21.575Z,14.20
2022-11-06T17:15:07.514Z,14.20
2022-11-06T17:17:52.978Z,14.20
2022-11-06T17:20:38.752Z,14.20
2022-11-06T17:23:25.614Z,14.20
2022-11-06T17:26:27.900Z,14.20
2022-11-06T17:29:16.985Z,14.10
2022-11-06T17:32:06.838Z,14.10
2022-11-06T17:34:52.648Z,14.00
2022-11-06T17:37:38.243Z,14.00
2022-11-06T17:40:23.997Z,14.00
2022-11-06T17:43:10.612Z,14.00
2022-11-06T17:45:56.461Z,14.00
2022-11-06T17:48:42.068Z,14.00
2022-11-06T17:51:46.489Z,14.00
2022-11-06T17:54:34.005Z,13.90
2022-11-06T17:57:23.915Z,13.90
2022-11-06T18:00:11.427Z,13.90
2022-11-06T18:03:01.671Z,13.90
2022-11-06T18:05:47.783Z,13.90
2022-11-06T18:08:33.461Z,13.90
2022-11-06T18:11:18.998Z,13.90
2022-11-06T18:14:04.666Z,13.90
2022-11-06T18:16:51.052Z,13.90
2022-11-06T18:19:36.816Z,13.90
2022-11-06T18:22:22.408Z,13.90
2022-11-06T18:25:08.272Z,13.80
2022-11-06T18:27:53.706Z,13.80
2022-11-06T18:30:39.284Z,13.80
2022-11-06T18:33:24.813Z,13.80
2022-11-06T18:36:11.850Z,13.70
2022-11-06T18:38:57.515Z,13.80
2022-11-06T18:41:43.048Z,13.80
2022-11-06T18:44:28.643Z,13.70
2022-11-06T18:47:14.338Z,13.70
2022-11-06T18:49:59.817Z,13.70
2022-11-06T18:52:57.524Z,13.70
2022-11-06T18:55:45.928Z,13.60
2022-11-06T18:58:31.966Z,13.60
2022-11-06T19:01:23.129Z,13.60
2022-11-06T19:04:11.186Z,13.60
2022-11-06T19:06:56.704Z,13.60
2022-11-06T19:09:43.172Z,13.60
2022-11-06T19:12:28.988Z,13.60
2022-11-06T19:15:14.405Z,13.70
2022-11-06T19:18:00.656Z,13.60
2022-11-06T19:20:46.319Z,13.50
2022-11-06T19:23:32.181Z,13.50
2022-11-06T19:26:30.480Z,13.50
2022-11-06T19:29:16.947Z,13.50
2022-11-06T19:32:03.104Z,13.50
2022-11-06T19:34:48.527Z,13.50
2022-11-06T19:37:34.451Z,13.50
2022-11-06T19:40:20.240Z,13.50
2022-11-06T19:43:07.111Z,13.50
2022-11-06T19:45:53.254Z,13.50
2022-11-06T19:48:38.744Z,13.60
2022-11-06T19:51:25.857Z,13.60
2022-11-06T19:54:11.443Z,13.60
2022-11-06T19:57:29.172Z,13.60
2022-11-06T20:00:04.999Z,13.60
2022-11-06T20:02:57.093Z,13.50
2022-11-06T20:05:42.911Z,13.60
2022-11-06T20:08:28.742Z,13.60
2022-11-06T20:11:14.948Z,13.60
2022-11-06T20:14:00.901Z,13.60
2022-11-06T20:16:46.274Z,13.60
2022-11-06T20:19:31.852Z,13.50
2022-11-06T20:22:17.552Z,13.50
2022-11-06T20:25:03.618Z,13.50
2022-11-06T20:27:49.400Z,13.50
2022-11-06T20:30:35.594Z,13.50
2022-11-06T20:33:21.512Z,13.40
2022-11-06T20:36:15.391Z,13.40
2022-11-06T20:39:01.889Z,13.40
2022-11-06T20:41:47.803Z,13.40
2022-11-06T20:44:33.573Z,13.40
2022-11-06T20:47:19.590Z,13.40
2022-11-06T20:50:06.007Z,13.30
2022-11-06T20:52:51.384Z,13.30
2022-11-06T20:55:37.064Z,13.30
2022-11-06T20:58:22.737Z,13.30
2022-11-06T21:01:14.925Z,13.40
2022-11-06T21:04:00.707Z,13.40
2022-11-06T21:06:46.014Z,13.40
2022-11-06T21:09:31.712Z,13.40
2022-11-06T21:12:17.349Z,13.40
2022-11-06T21:15:03.027Z,13.40
2022-11-06T21:17:48.822Z,13.40
2022-11-06T21:20:37.801Z,13.40
2022-11-06T21:23:23.464Z,13.30
2022-11-06T21:26:10.580Z,13.30
2022-11-06T21:28:56.766Z,13.30
2022-11-06T21:31:48.608Z,13.30
2022-11-06T21:34:34.688Z,13.30
2022-11-06T21:37:20.131Z,13.30
2022-11-06T21:40:06.304Z,13.20
2022-11-06T21:42:51.774Z,13.20
2022-11-06T21:45:37.639Z,13.20
2022-11-06T21:48:44.760Z,13.30
2022-11-06T21:51:31.619Z,13.30
2022-11-06T21:54:35.919Z,13.30
2022-11-06T21:57:21.331Z,13.30
2022-11-06T22:00:08.613Z,13.30
2022-11-06T22:02:57.323Z,13.30
2022-11-06T22:05:43.272Z,13.30
2022-11-06T22:08:30.645Z,13.30
2022-11-06T22:11:20.732Z,13.30
2022-11-06T22:14:17.127Z,13.30
2022-11-06T22:17:03.028Z,13.20
2022-11-06T22:19:48.419Z,13.30
2022-11-06T22:22:33.852Z,13.30
2022-11-06T22:25:19.273Z,13.30
2022-11-06T22:28:04.995Z,13.20
2022-11-06T22:30:50.608Z,13.20
2022-11-06T22:33:36.939Z,13.20
2022-11-06T22:36:23.455Z,13.30
2022-11-06T22:39:10.546Z,13.30
2022-11-06T22:41:56.127Z,13.30
2022-11-06T22:44:42.114Z,13.20
2022-11-06T22:47:27.998Z,13.20
2022-11-06T22:50:13.560Z,13.20
2022-11-06T22:52:58.890Z,13.20
2022-11-06T22:55:44.246Z,13.30
2022-11-06T22:58:30.600Z,13.30
2022-11-06T23:01:21.601Z,13.30
2022-11-06T23:04:14.468Z,13.30
2022-11-06T23:07:00.053Z,13.30
2022-11-06T23:09:45.627Z,13.30
2022-11-06T23:12:31.118Z,13.30
2022-11-06T23:15:16.776Z,13.20
2022-11-06T23:18:02.383Z,13.30
2022-11-06T23:20:47.859Z,13.30
2022-11-06T23:23:33.563Z,13.30
2022-11-06T23:26:19.387Z,13.30
2022-11-06T23:29:05.200Z,13.30
2022-11-06T23:31:50.712Z,13.30
2022-11-06T23:34:36.254Z,13.30
2022-11-06T23:37:22.511Z,13.30
2022-11-06T23:40:10.969Z,13.30
2022-11-06T23:42:57.597Z,13.30
2022-11-06T23:45:49.213Z,13.30
2022-11-06T23:48:35.080Z,13.30
2022-11-06T23:51:21.463Z,13.30
2022-11-06T23:54:07.034Z,13.30
2022-11-06T23:56:52.739Z,13.30
2022-11-06T23:59:38.286Z,13.30
